Time;durP1;ratioP1;P1;durP2;ratioP2;P2;SDS_P1;SDS_P2;PMS_P1;PMS_P2;Temp;Humidity;BMP_temperature;BMP_pressure;BME280_temperature;BME280_humidity;BME280_pressure;Samples;Min_cycle;Max_cycle;Signal;HPM_P1;HPM_P2
2022/01/05 00:00:05;;;;;;;12.88;1.77;;;0.50;89.20;;;;;;5140587;27;20090;-77
2022/01/05 00:02:39;;;;;;;13.93;1.80;;;0.50;88.90;;;;;;5145417;27;20097;-78
2022/01/05 00:05:11;;;;;;;17.90;2.30;;;0.50;88.80;;;;;;5146208;27;20894;-78
2022/01/05 00:07:37;;;;;;;6.03;1.90;;;0.50;88.70;;;;;;5147018;27;20035;-78
2022/01/05 00:10:04;;;;;;;22.88;2.08;;;0.40;88.70;;;;;;5144289;27;20962;-77
2022/01/05 00:12:31;;;;;;;10.43;2.15;;;0.40;88.80;;;;;;5142916;27;20130;-78
2022/01/05 00:14:58;;;;;;;15.95;1.77;;;0.40;88.80;;;;;;5141483;27;20047;-78
2022/01/05 00:17:25;;;;;;;9.50;1.60;;;0.30;89.00;;;;;;5142296;27;20062;-77
2022/01/05 00:19:58;;;;;;;7.13;1.70;;;0.30;89.10;;;;;;5141891;27;20428;-77
2022/01/05 00:22:25;;;;;;;8.63;1.65;;;0.20;89.10;;;;;;5142470;27;20055;-77
2022/01/05 00:24:51;;;;;;;13.43;1.90;;;0.20;89.60;;;;;;5143564;27;20064;-78
2022/01/05 00:27:18;;;;;;;9.68;2.10;;;0.20;89.50;;;;;;5142203;27;20957;-77
2022/01/05 00:29:46;;;;;;;12.57;1.75;;;0.20;89.20;;;;;;5141229;27;20053;-77
2022/01/05 00:32:12;;;;;;;11.10;1.95;;;0.20;89.30;;;;;;5138029;27;20491;-77
2022/01/05 00:34:39;;;;;;;11.52;2.13;;;0.30;89.30;;;;;;5143652;27;20051;-77
2022/01/05 00:37:08;;;;;;;11.23;2.03;;;0.30;89.80;;;;;;5140242;27;20888;-77
2022/01/05 00:39:35;;;;;;;8.82;2.00;;;0.20;89.80;;;;;;5140075;27;20057;-78
2022/01/05 00:42:02;;;;;;;9.75;1.67;;;0.20;89.70;;;;;;5141366;27;20051;-77
2022/01/05 00:44:29;;;;;;;8.82;1.92;;;0.20;89.80;;;;;;5143257;27;20055;-78
2022/01/05 00:46:56;;;;;;;11.35;1.65;;;0.20;89.80;;;;;;5139942;27;20047;-77
2022/01/05 00:49:23;;;;;;;8.38;1.45;;;0.20;90.00;;;;;;5141528;27;20135;-77
2022/01/05 00:51:49;;;;;;;12.77;2.15;;;0.20;89.80;;;;;;5139000;27;20051;-77
2022/01/05 00:54:16;;;;;;;14.77;2.20;;;0.20;90.30;;;;;;5141429;27;20962;-79
2022/01/05 00:56:43;;;;;;;8.93;1.88;;;0.30;89.80;;;;;;5140593;27;20075;-77
2022/01/05 00:59:09;;;;;;;10.70;2.20;;;0.40;89.50;;;;;;5137970;27;20055;-77
2022/01/05 01:01:36;;;;;;;12.27;2.55;;;0.50;90.20;;;;;;5139495;27;20051;-78
2022/01/05 01:04:06;;;;;;;12.20;2.00;;;0.70;89.50;;;;;;5140955;27;20051;-80
2022/01/05 01:06:36;;;;;;;12.38;2.03;;;0.90;89.80;;;;;;5140686;27;20055;-77
2022/01/05 01:09:03;;;;;;;9.70;2.10;;;1.00;89.80;;;;;;5140633;27;20527;-77
2022/01/05 01:11:29;;;;;;;18.20;2.40;;;1.00;89.30;;;;;;5139384;27;20047;-77
2022/01/05 01:13:56;;;;;;;11.15;1.80;;;1.00;89.50;;;;;;5141028;27;20054;-77
2022/01/05 01:16:23;;;;;;;14.13;2.25;;;1.00;89.30;;;;;;5137408;27;20082;-77
2022/01/05 01:18:51;;;;;;;11.55;2.00;;;0.90;89.70;;;;;;5138830;27;20047;-77
2022/01/05 01:21:18;;;;;;;13.68;2.08;;;0.90;89.70;;;;;;5139283;27;20052;-76
2022/01/05 01:23:54;;;;;;;11.88;1.80;;;0.80;89.90;;;;;;5138173;27;20048;-78
2022/01/05 01:26:26;;;;;;;13.90;2.28;;;0.70;90.00;;;;;;5138956;27;20058;-78
2022/01/05 01:28:53;;;;;;;15.57;2.70;;;0.70;90.20;;;;;;5139361;27;20053;-78
2022/01/05 01:31:20;;;;;;;7.35;1.60;;;0.70;90.10;;;;;;5139120;27;20709;-78
2022/01/05 01:33:47;;;;;;;15.75;2.30;;;0.60;90.40;;;;;;5138255;27;20059;-78
2022/01/05 01:36:15;;;;;;;17.90;2.17;;;0.50;90.30;;;;;;5140499;27;20082;-78
2022/01/05 01:38:42;;;;;;;17.63;2.63;;;0.50;90.20;;;;;;5138925;27;20059;-78
2022/01/05 01:41:10;;;;;;;11.70;2.10;;;0.40;90.40;;;;;;5139034;27;22107;-78
2022/01/05 01:43:37;;;;;;;15.60;2.58;;;0.50;90.40;;;;;;5138422;27;20136;-78
2022/01/05 01:46:05;;;;;;;10.35;2.10;;;0.40;90.40;;;;;;5138654;27;20053;-78
2022/01/05 01:48:33;;;;;;;10.00;2.03;;;0.40;90.20;;;;;;5141655;27;20051;-78
2022/01/05 01:50:59;;;;;;;20.25;2.83;;;0.40;90.20;;;;;;5138786;27;20908;-78
2022/01/05 01:53:26;;;;;;;13.00;2.60;;;0.40;90.40;;;;;;5139122;27;20047;-78
2022/01/05 01:55:55;;;;;;;17.50;2.50;;;0.40;90.60;;;;;;5138201;27;20054;-78
2022/01/05 01:58:25;;;;;;;7.22;2.15;;;0.40;90.50;;;;;;5136713;27;20059;-77
2022/01/05 02:00:52;;;;;;;13.07;1.95;;;0.40;90.40;;;;;;5137945;27;20057;-77
2022/01/05 02:03:24;;;;;;;17.75;2.42;;;0.30;90.30;;;;;;5140374;27;20477;-78
2022/01/05 02:05:50;;;;;;;17.15;2.72;;;0.30;90.20;;;;;;5139281;27;20101;-78
2022/01/05 02:08:17;;;;;;;14.63;2.53;;;0.30;90.00;;;;;;5137151;27;20053;-78
2022/01/05 02:10:44;;;;;;;18.27;2.55;;;0.30;90.20;;;;;;5141011;27;20053;-78
2022/01/05 02:13:11;;;;;;;18.67;2.90;;;0.30;90.20;;;;;;5139278;27;20520;-78
2022/01/05 02:15:40;;;;;;;21.33;3.00;;;0.20;90.40;;;;;;5137374;27;20054;-78
2022/01/05 02:20:34;;;;;;;16.60;2.80;;;0.30;90.10;;;;;;5137080;27;20050;-79
2022/01/05 02:23:01;;;;;;;13.57;2.05;;;0.30;90.30;;;;;;5138631;27;20067;-78
2022/01/05 02:25:28;;;;;;;17.45;2.03;;;0.40;90.30;;;;;;5137378;27;20651;-79
2022/01/05 02:27:56;;;;;;;12.85;2.10;;;0.40;90.40;;;;;;5139277;27;20128;-78
2022/01/05 02:30:26;;;;;;;17.48;3.38;;;0.40;90.30;;;;;;5137907;27;20552;-78
2022/01/05 02:32:53;;;;;;;14.88;2.75;;;0.40;90.40;;;;;;5138703;27;20047;-78
2022/01/05 02:35:26;;;;;;;15.18;2.53;;;0.40;90.20;;;;;;5138970;27;20517;-79
2022/01/05 02:37:54;;;;;;;21.08;2.80;;;0.50;90.00;;;;;;5137950;27;20130;-78
2022/01/05 02:40:22;;;;;;;18.33;2.30;;;0.50;89.90;;;;;;5138211;27;20138;-77
2022/01/05 02:42:51;;;;;;;17.58;2.50;;;0.40;89.70;;;;;;5139073;27;20054;-77
2022/01/05 02:45:18;;;;;;;16.73;2.20;;;0.50;89.40;;;;;;5139064;27;20134;-78
2022/01/05 02:47:45;;;;;;;19.83;2.80;;;0.50;89.30;;;;;;5138623;27;20039;-78
2022/01/05 02:50:12;;;;;;;11.68;2.38;;;0.40;89.40;;;;;;5139742;27;20058;-78
2022/01/05 02:52:39;;;;;;;14.98;2.05;;;0.40;89.20;;;;;;5137563;27;20165;-77
2022/01/05 02:55:07;;;;;;;18.52;2.67;;;0.40;89.20;;;;;;5139284;27;20048;-78
2022/01/05 02:57:36;;;;;;;14.68;2.00;;;0.40;89.20;;;;;;5137761;27;21005;-77
2022/01/05 03:00:05;;;;;;;16.58;2.95;;;0.40;88.80;;;;;;5141990;27;20051;-77
2022/01/05 03:02:35;;;;;;;19.17;2.08;;;0.50;88.20;;;;;;5141787;27;20055;-77
2022/01/05 03:05:03;;;;;;;12.48;2.08;;;0.60;87.80;;;;;;5141015;27;20470;-77
2022/01/05 03:07:32;;;;;;;15.05;2.20;;;0.60;87.40;;;;;;5142649;27;20059;-77
2022/01/05 03:09:58;;;;;;;14.27;2.15;;;0.60;86.90;;;;;;5140848;27;20043;-77
2022/01/05 03:12:25;;;;;;;16.42;1.98;;;0.70;86.90;;;;;;5142874;27;20043;-77
2022/01/05 03:14:52;;;;;;;13.07;2.42;;;0.80;86.30;;;;;;5142455;27;20051;-78
2022/01/05 03:17:18;;;;;;;15.45;2.30;;;0.80;86.30;;;;;;5143000;27;20048;-77
2022/01/05 03:19:45;;;;;;;11.73;2.28;;;0.80;86.40;;;;;;5140097;27;20130;-78
2022/01/05 03:22:11;;;;;;;12.95;2.50;;;0.80;86.30;;;;;;5139849;27;20810;-77
2022/01/05 03:24:41;;;;;;;11.75;2.30;;;0.80;85.90;;;;;;5140617;27;20044;-77
2022/01/05 03:27:08;;;;;;;16.77;2.38;;;0.80;86.10;;;;;;5139798;27;20061;-77
2022/01/05 03:29:35;;;;;;;19.98;2.47;;;0.80;86.20;;;;;;5140666;27;20043;-78
2022/01/05 03:32:02;;;;;;;13.90;2.15;;;0.80;86.10;;;;;;5142129;27;20047;-77
2022/01/05 03:34:31;;;;;;;10.90;1.98;;;0.80;86.20;;;;;;5141689;27;20044;-76
2022/01/05 03:36:59;;;;;;;18.33;2.33;;;0.80;86.40;;;;;;5140495;27;20109;-77
2022/01/05 03:39:26;;;;;;;20.88;3.60;;;0.70;86.10;;;;;;5139841;27;20055;-77
2022/01/05 03:41:55;;;;;;;12.50;1.80;;;0.80;85.90;;;;;;5141235;27;20134;-77
2022/01/05 03:44:22;;;;;;;16.23;2.65;;;0.80;86.20;;;;;;5141445;27;20174;-77
2022/01/05 03:46:50;;;;;;;12.07;1.90;;;0.80;86.10;;;;;;5141503;27;20744;-77
2022/01/05 03:49:17;;;;;;;12.40;2.30;;;0.70;86.10;;;;;;5142715;27;20827;-77
2022/01/05 03:51:45;;;;;;;21.00;2.30;;;0.70;86.30;;;;;;5141677;27;20134;-77
2022/01/05 03:54:12;;;;;;;23.25;2.63;;;0.70;86.40;;;;;;5141431;27;20089;-78
2022/01/05 03:56:39;;;;;;;10.90;2.03;;;0.80;86.30;;;;;;5141538;27;20047;-78
2022/01/05 03:59:08;;;;;;;12.40;2.30;;;0.80;86.10;;;;;;5139811;27;20059;-78
2022/01/05 04:01:35;;;;;;;14.02;2.15;;;0.80;86.10;;;;;;5140822;27;20047;-77
2022/01/05 04:04:02;;;;;;;16.00;2.42;;;0.90;86.00;;;;;;5140703;27;20052;-77
2022/01/05 04:06:28;;;;;;;12.23;2.35;;;0.80;86.00;;;;;;5139767;27;20819;-77
2022/01/05 04:08:55;;;;;;;13.40;2.40;;;0.90;86.30;;;;;;5138687;27;20053;-77
2022/01/05 04:11:22;;;;;;;16.63;2.60;;;0.90;86.60;;;;;;5141910;27;20897;-77
2022/01/05 04:13:48;;;;;;;16.10;2.60;;;1.00;86.30;;;;;;5140965;27;20043;-77
2022/01/05 04:16:15;;;;;;;15.68;2.53;;;1.00;86.20;;;;;;5139930;27;20391;-78
2022/01/05 04:18:42;;;;;;;17.92;2.55;;;1.00;86.10;;;;;;5139980;27;20048;-77
2022/01/05 04:21:11;;;;;;;18.20;3.15;;;1.10;86.30;;;;;;5141976;27;20052;-78
2022/01/05 04:23:41;;;;;;;13.82;2.55;;;1.00;86.50;;;;;;5139891;27;20122;-77
2022/01/05 04:26:08;;;;;;;13.30;2.70;;;1.10;86.50;;;;;;5141036;27;20436;-78
2022/01/05 04:28:35;;;;;;;15.73;2.88;;;1.10;86.70;;;;;;5140118;27;20168;-78
2022/01/05 04:31:01;;;;;;;20.80;2.50;;;1.10;86.50;;;;;;5142205;27;20083;-78
2022/01/05 04:33:28;;;;;;;13.93;2.20;;;1.20;86.30;;;;;;5140952;27;20143;-78
2022/01/05 04:36:15;;;;;;;21.10;2.58;;;1.30;86.60;;;;;;5141613;27;20044;-77
2022/01/05 04:38:41;;;;;;;24.88;3.88;;;1.40;86.00;;;;;;5140036;27;20051;-77
2022/01/05 04:41:11;;;;;;;17.27;2.50;;;1.60;85.80;;;;;;5141123;27;20043;-77
2022/01/05 04:43:41;;;;;;;16.58;2.53;;;1.60;86.00;;;;;;5140644;27;20079;-77
2022/01/05 04:46:11;;;;;;;21.05;3.38;;;1.70;85.70;;;;;;5141507;27;20051;-78
2022/01/05 04:48:42;;;;;;;17.73;2.17;;;1.70;86.20;;;;;;5139707;27;22146;-78
2022/01/05 04:51:09;;;;;;;19.48;3.33;;;1.70;86.50;;;;;;5139608;27;20047;-79
2022/01/05 04:53:41;;;;;;;19.52;2.33;;;1.80;86.70;;;;;;5141570;27;20185;-79
2022/01/05 04:56:07;;;;;;;14.05;2.70;;;1.80;86.60;;;;;;5140571;27;20428;-78
2022/01/05 04:58:34;;;;;;;16.02;2.90;;;1.80;86.90;;;;;;5139691;27;20048;-78
2022/01/05 05:01:01;;;;;;;19.05;2.75;;;1.80;87.00;;;;;;5142893;27;20130;-78
2022/01/05 05:03:28;;;;;;;19.05;2.53;;;1.80;87.10;;;;;;5141738;27;20093;-78
2022/01/05 05:05:54;;;;;;;14.18;2.92;;;1.80;87.30;;;;;;5141520;27;20528;-78
2022/01/05 05:08:21;;;;;;;17.85;2.55;;;1.80;87.20;;;;;;5139827;27;20058;-78
2022/01/05 05:10:48;;;;;;;23.63;3.75;;;1.80;87.50;;;;;;5139778;27;20138;-78
2022/01/05 05:13:14;;;;;;;19.88;2.80;;;1.90;87.00;;;;;;5140007;27;20100;-79
2022/01/05 05:15:41;;;;;;;31.58;3.47;;;2.00;87.10;;;;;;5141079;27;20417;-79
2022/01/05 05:18:11;;;;;;;18.25;2.65;;;2.10;85.90;;;;;;5140258;27;20051;-78
2022/01/05 05:20:41;;;;;;;14.48;3.17;;;2.10;86.10;;;;;;5139254;27;20094;-78
2022/01/05 05:23:11;;;;;;;17.92;2.80;;;2.10;86.20;;;;;;5140323;27;20134;-78
2022/01/05 05:25:39;;;;;;;15.50;3.10;;;2.20;85.90;;;;;;5140374;27;20105;-79
2022/01/05 05:28:06;;;;;;;18.10;3.10;;;2.30;85.90;;;;;;5142802;27;20092;-78
2022/01/05 05:30:36;;;;;;;16.95;2.83;;;2.20;86.40;;;;;;5140253;27;20051;-78
2022/01/05 05:33:03;;;;;;;17.05;2.88;;;2.30;86.50;;;;;;5141099;27;20151;-77
2022/01/05 05:35:30;;;;;;;18.80;2.63;;;2.40;85.70;;;;;;5139368;27;20044;-77
2022/01/05 05:38:00;;;;;;;18.42;3.25;;;2.40;85.60;;;;;;5142267;27;20047;-78
2022/01/05 05:40:27;;;;;;;16.33;3.10;;;2.40;86.60;;;;;;5140732;27;20035;-78
2022/01/05 05:42:53;;;;;;;17.42;2.88;;;2.40;86.60;;;;;;5140882;27;20569;-78
2022/01/05 05:45:20;;;;;;;15.00;2.88;;;2.50;86.80;;;;;;5142779;27;20047;-78
2022/01/05 05:47:47;;;;;;;23.52;3.10;;;2.50;86.60;;;;;;5144965;27;20878;-78
2022/01/05 05:50:14;;;;;;;17.33;3.08;;;2.50;86.10;;;;;;5142709;27;20501;-79
2022/01/05 05:52:41;;;;;;;13.73;2.72;;;2.60;85.90;;;;;;5143013;27;20305;-78
2022/01/05 05:55:10;;;;;;;19.15;2.97;;;2.60;85.20;;;;;;5139281;27;20054;-78
2022/01/05 05:57:41;;;;;;;16.02;2.88;;;2.70;84.70;;;;;;5143283;27;20051;-78
2022/01/05 06:00:12;;;;;;;26.48;3.05;;;2.70;85.10;;;;;;5143169;27;20055;-79
2022/01/05 06:02:41;;;;;;;16.00;2.63;;;2.80;84.10;;;;;;5143282;27;20853;-78
2022/01/05 06:05:08;;;;;;;15.60;2.38;;;2.80;84.40;;;;;;5143901;27;20178;-78
2022/01/05 06:07:36;;;;;;;20.83;2.85;;;2.80;83.90;;;;;;5144996;27;20827;-78
2022/01/05 06:10:05;;;;;;;20.42;2.80;;;2.90;84.20;;;;;;5143540;27;20140;-78
2022/01/05 06:12:34;;;;;;;21.98;2.55;;;2.90;83.40;;;;;;5143804;27;20047;-78
2022/01/05 06:15:00;;;;;;;25.70;3.30;;;2.90;83.30;;;;;;5147845;27;20066;-78
2022/01/05 06:17:27;;;;;;;25.50;3.50;;;3.00;83.50;;;;;;5143648;27;20111;-78
2022/01/05 06:19:54;;;;;;;14.02;2.67;;;3.00;83.90;;;;;;5145682;27;22082;-79
2022/01/05 06:22:20;;;;;;;22.40;2.95;;;3.00;83.70;;;;;;5145768;27;20067;-79
2022/01/05 06:24:48;;;;;;;19.05;3.38;;;3.00;83.60;;;;;;5141769;27;20052;-78
2022/01/05 06:27:19;;;;;;;16.27;2.70;;;3.00;83.60;;;;;;5144561;27;20051;-78
2022/01/05 06:29:46;;;;;;;24.70;3.40;;;3.00;84.90;;;;;;5142475;27;20137;-78
2022/01/05 06:32:13;;;;;;;20.92;3.08;;;3.00;85.70;;;;;;5141774;27;20051;-78
2022/01/05 06:34:42;;;;;;;17.35;2.60;;;2.90;86.80;;;;;;5144491;27;20067;-78
2022/01/05 06:37:15;;;;;;;21.65;3.22;;;2.90;86.10;;;;;;5144685;27;20101;-77
2022/01/05 06:39:42;;;;;;;20.42;3.95;;;2.90;86.90;;;;;;5144317;27;20052;-78
2022/01/05 06:42:09;;;;;;;19.48;3.05;;;2.80;86.80;;;;;;5144265;27;20054;-78
2022/01/05 06:44:35;;;;;;;17.98;3.40;;;2.80;88.00;;;;;;5145340;27;20054;-79
2022/01/05 06:47:05;;;;;;;23.52;2.78;;;2.80;88.50;;;;;;5145041;27;20071;-77
2022/01/05 06:49:32;;;;;;;14.77;2.85;;;2.80;88.00;;;;;;5144308;27;21016;-78
2022/01/05 06:51:58;;;;;;;20.88;2.85;;;2.80;88.60;;;;;;5140186;27;20573;-77
2022/01/05 06:54:29;;;;;;;21.77;3.22;;;2.80;88.00;;;;;;5142756;27;20077;-77
2022/01/05 06:56:56;;;;;;;21.83;3.17;;;2.80;88.20;;;;;;5144151;27;20516;-79
2022/01/05 06:59:25;;;;;;;23.98;2.85;;;2.80;87.60;;;;;;5144552;27;20039;-79
2022/01/05 07:01:52;;;;;;;16.48;2.63;;;2.90;87.80;;;;;;5142307;27;20047;-78
2022/01/05 07:04:19;;;;;;;18.65;2.92;;;2.90;87.60;;;;;;5143058;27;20051;-78
2022/01/05 07:06:48;;;;;;;18.27;2.30;;;2.90;87.50;;;;;;5144303;27;20142;-77
2022/01/05 07:09:15;;;;;;;24.75;3.08;;;2.90;87.80;;;;;;5141220;27;20047;-78
2022/01/05 07:11:43;;;;;;;19.83;2.83;;;2.90;88.00;;;;;;5141718;27;20151;-78
2022/01/05 07:14:11;;;;;;;20.23;3.42;;;3.00;87.20;;;;;;5140033;27;20497;-77
2022/01/05 07:16:41;;;;;;;18.75;3.65;;;3.00;87.00;;;;;;5140668;27;20047;-79
2022/01/05 07:19:10;;;;;;;15.82;2.72;;;3.00;87.20;;;;;;5143321;27;20402;-80
2022/01/05 07:21:37;;;;;;;25.58;3.30;;;3.00;87.50;;;;;;5140604;27;20506;-78
2022/01/05 07:24:04;;;;;;;25.05;3.50;;;3.10;87.70;;;;;;5140817;27;20071;-77
2022/01/05 07:26:39;;;;;;;22.85;2.95;;;3.10;88.30;;;;;;5140187;27;20139;-78
2022/01/05 07:29:09;;;;;;;20.33;3.80;;;3.10;88.10;;;;;;5138841;27;20075;-78
2022/01/05 07:31:41;;;;;;;21.33;3.08;;;3.20;88.30;;;;;;5140043;27;20094;-78
2022/01/05 07:34:08;;;;;;;23.00;2.95;;;3.20;88.70;;;;;;5141766;27;20051;-80
2022/01/05 07:36:40;;;;;;;19.58;2.88;;;3.20;88.30;;;;;;5143063;27;20130;-78
2022/01/05 07:39:10;;;;;;;23.90;3.58;;;3.20;87.80;;;;;;5142509;27;20138;-78
2022/01/05 07:41:40;;;;;;;22.33;3.05;;;3.30;88.50;;;;;;5143253;27;20054;-79
2022/01/05 07:44:10;;;;;;;27.40;4.28;;;3.30;88.10;;;;;;5140409;27;20104;-78
2022/01/05 07:46:40;;;;;;;23.15;3.22;;;3.30;88.50;;;;;;5144502;27;20051;-79
2022/01/05 07:49:11;;;;;;;15.20;3.45;;;3.30;88.70;;;;;;5140679;27;20055;-78
2022/01/05 07:51:38;;;;;;;18.70;2.90;;;3.40;88.70;;;;;;5142552;27;20040;-81
2022/01/05 07:54:05;;;;;;;20.42;3.08;;;3.40;89.10;;;;;;5144225;27;20035;-78
2022/01/05 07:56:32;;;;;;;21.55;3.80;;;3.40;88.90;;;;;;5142210;27;20040;-79
2022/01/05 07:58:59;;;;;;;23.92;3.30;;;3.50;88.80;;;;;;5140060;27;20055;-79
2022/01/05 08:01:27;;;;;;;20.95;2.90;;;3.40;89.30;;;;;;5143393;27;20048;-78
2022/01/05 08:03:58;;;;;;;25.75;3.50;;;3.50;89.20;;;;;;5123153;27;20054;-80
2022/01/05 08:06:30;;;;;;;22.67;3.15;;;3.50;89.60;;;;;;5138351;27;20047;-79
2022/01/05 08:08:57;;;;;;;25.38;3.03;;;3.50;90.20;;;;;;5143084;27;20054;-81
2022/01/05 08:11:27;;;;;;;28.23;3.15;;;3.50;89.90;;;;;;5143703;27;20412;-80
2022/01/05 08:13:54;;;;;;;17.38;3.15;;;3.50;90.20;;;;;;5151953;27;20044;-81
2022/01/05 08:16:21;;;;;;;21.73;4.00;;;3.50;90.30;;;;;;5155556;27;20055;-81
2022/01/05 08:18:49;;;;;;;25.35;3.97;;;3.50;90.80;;;;;;5155688;27;20039;-82
2022/01/05 08:21:19;;;;;;;21.23;3.03;;;3.50;91.10;;;;;;5161541;27;20042;-82
2022/01/05 08:23:46;;;;;;;28.65;3.88;;;3.50;91.40;;;;;;5159451;27;20047;-81
2022/01/05 08:26:15;;;;;;;27.52;3.03;;;3.50;91.80;;;;;;5153282;27;20154;-79
2022/01/05 08:28:45;;;;;;;32.28;3.50;;;3.50;91.90;;;;;;5156347;27;20043;-80
2022/01/05 08:31:15;;;;;;;31.95;3.35;;;3.50;91.90;;;;;;5162108;27;20033;-80
2022/01/05 08:33:46;;;;;;;21.73;3.55;;;3.50;92.10;;;;;;5164115;27;20038;-80
2022/01/05 08:36:13;;;;;;;17.70;2.75;;;3.50;92.10;;;;;;5164640;27;20051;-81
2022/01/05 08:38:40;;;;;;;20.13;2.70;;;3.50;92.80;;;;;;5159815;27;20112;-80
2022/01/05 08:41:08;;;;;;;23.42;3.10;;;3.50;92.60;;;;;;5165009;27;20124;-82
2022/01/05 08:43:40;;;;;;;12.68;2.85;;;3.50;92.80;;;;;;5157558;27;20043;-79
2022/01/05 08:46:07;;;;;;;22.63;2.55;;;3.50;92.60;;;;;;5156149;27;20106;-80
2022/01/05 08:48:36;;;;;;;26.90;3.28;;;3.50;92.80;;;;;;5153889;27;20153;-79
2022/01/05 08:51:02;;;;;;;26.98;3.13;;;3.50;92.90;;;;;;5150538;27;20603;-79
2022/01/05 08:53:29;;;;;;;15.05;2.40;;;3.50;92.80;;;;;;5150756;27;20090;-79
2022/01/05 08:55:59;;;;;;;21.52;2.92;;;3.50;93.00;;;;;;5152170;27;20080;-80
2022/01/05 08:58:31;;;;;;;22.35;3.10;;;3.50;93.30;;;;;;5148187;27;20066;-80
2022/01/05 09:00:59;;;;;;;27.83;3.42;;;3.50;93.60;;;;;;5150222;27;20869;-79
2022/01/05 09:03:26;;;;;;;21.98;3.85;;;3.60;93.50;;;;;;5151091;27;20851;-80
2022/01/05 09:05:53;;;;;;;21.05;2.72;;;3.60;93.90;;;;;;5153396;27;20847;-80
2022/01/05 09:08:20;;;;;;;25.83;3.08;;;3.60;93.90;;;;;;5157223;27;20074;-81
2022/01/05 09:10:52;;;;;;;31.25;3.67;;;3.60;93.80;;;;;;5160163;27;20040;-80
2022/01/05 09:13:20;;;;;;;19.80;3.72;;;3.60;94.20;;;;;;5160433;27;20049;-81
2022/01/05 09:15:48;;;;;;;16.98;2.78;;;3.60;94.20;;;;;;5156020;27;20043;-81
2022/01/05 09:18:16;;;;;;;32.58;4.07;;;3.60;94.30;;;;;;5151633;27;20061;-82
2022/01/05 09:20:43;;;;;;;25.17;3.50;;;3.70;94.30;;;;;;5153367;27;20031;-80
2022/01/05 09:23:12;;;;;;;30.15;3.10;;;3.70;94.30;;;;;;5152381;27;20027;-82
2022/01/05 09:25:39;;;;;;;28.80;3.78;;;3.60;94.50;;;;;;5153577;27;20489;-81
2022/01/05 09:28:11;;;;;;;31.70;4.13;;;3.70;94.60;;;;;;5159463;27;20050;-82
2022/01/05 09:30:38;;;;;;;27.45;3.42;;;3.70;94.80;;;;;;5158896;27;20015;-82
2022/01/05 09:33:08;;;;;;;29.85;2.97;;;3.70;94.90;;;;;;5157623;27;20031;-81
2022/01/05 09:35:43;;;;;;;26.70;3.50;;;3.80;95.00;;;;;;5155253;27;20087;-82
2022/01/05 09:38:23;;;;;;;29.33;3.17;;;3.80;94.90;;;;;;5155417;27;20103;-81
2022/01/05 09:43:54;;;;;;;40.60;4.10;;;3.80;95.10;;;;;;5159437;27;20588;-82
2022/01/05 09:46:49;;;;;;;37.08;4.28;;;3.80;95.30;;;;;;5156754;27;20093;-80
2022/01/05 09:49:31;;;;;;;40.08;4.57;;;3.80;95.40;;;;;;5152188;27;20908;-83
2022/01/05 09:52:03;;;;;;;37.65;4.38;;;3.90;95.50;;;;;;5155197;27;20047;-80
2022/01/05 09:54:33;;;;;;;41.97;4.10;;;3.90;95.60;;;;;;5155755;27;20099;-81
2022/01/05 09:57:02;;;;;;;29.48;3.70;;;3.90;95.70;;;;;;5158042;27;20045;-81
2022/01/05 09:59:32;;;;;;;32.35;3.67;;;4.00;95.80;;;;;;5156017;27;20051;-81
2022/01/05 10:01:59;;;;;;;31.95;4.10;;;4.00;95.70;;;;;;5157690;27;20054;-82
2022/01/05 10:04:29;;;;;;;43.00;4.07;;;4.00;95.70;;;;;;5156406;27;20095;-82
2022/01/05 10:07:05;;;;;;;33.08;3.92;;;4.00;95.70;;;;;;5157753;27;20047;-82
2022/01/05 10:09:37;;;;;;;42.85;4.43;;;4.10;95.70;;;;;;5159562;27;20039;-81
2022/01/05 10:12:08;;;;;;;34.13;4.07;;;4.10;95.80;;;;;;5167541;27;20043;-81
2022/01/05 10:14:38;;;;;;;31.00;3.92;;;4.20;95.80;;;;;;5156781;27;20423;-80
2022/01/05 10:17:10;;;;;;;42.55;3.47;;;4.20;95.70;;;;;;5152678;27;20086;-81
2022/01/05 10:19:38;;;;;;;33.45;3.50;;;4.30;95.70;;;;;;5152467;27;20062;-81
2022/01/05 10:22:27;;;;;;;37.58;4.88;;;4.30;95.70;;;;;;5157027;27;20053;-80
2022/01/05 10:24:57;;;;;;;31.83;3.22;;;4.30;95.70;;;;;;5152705;27;20165;-81
2022/01/05 10:27:34;;;;;;;55.58;4.85;;;4.30;95.80;;;;;;5152541;27;20035;-80
2022/01/05 10:30:05;;;;;;;45.42;4.45;;;4.40;95.80;;;;;;5156300;27;20058;-82
2022/01/05 10:32:37;;;;;;;46.33;3.93;;;4.40;95.90;;;;;;5156816;27;20039;-81
2022/01/05 10:35:15;;;;;;;42.83;4.63;;;4.40;95.90;;;;;;5159907;27;20043;-81
2022/01/05 10:37:45;;;;;;;46.85;4.20;;;4.50;95.80;;;;;;5158713;27;20043;-84
2022/01/05 10:40:20;;;;;;;39.03;3.55;;;4.50;95.80;;;;;;5174239;27;20060;-82
2022/01/05 10:42:56;;;;;;;37.50;3.92;;;4.50;96.00;;;;;;5153874;27;20047;-81
2022/01/05 10:45:45;;;;;;;42.40;4.43;;;4.60;96.00;;;;;;5157057;27;20044;-84
2022/01/05 10:48:17;;;;;;;40.15;4.22;;;4.60;96.10;;;;;;5156722;27;20047;-83
2022/01/05 10:50:53;;;;;;;45.92;4.38;;;4.60;96.10;;;;;;5157255;27;20043;-82
2022/01/05 10:53:26;;;;;;;36.95;3.92;;;4.60;96.10;;;;;;5157975;27;20024;-81
2022/01/05 10:55:57;;;;;;;41.10;4.03;;;4.70;96.00;;;;;;5154509;27;20043;-81
2022/01/05 10:58:24;;;;;;;35.58;4.60;;;4.70;96.10;;;;;;5157833;27;20039;-80
2022/01/05 11:00:53;;;;;;;42.70;4.72;;;4.70;96.10;;;;;;5159311;27;20036;-81
2022/01/05 11:03:35;;;;;;;49.10;4.43;;;4.70;96.10;;;;;;5157994;27;20045;-83
2022/01/05 11:06:11;;;;;;;43.10;4.50;;;4.70;96.00;;;;;;5176795;27;20059;-80
2022/01/05 11:09:00;;;;;;;25.65;3.30;;;4.70;96.10;;;;;;5159082;27;20039;-79
2022/01/05 11:11:47;;;;;;;31.23;4.22;;;4.80;96.00;;;;;;5157243;27;20024;-81
2022/01/05 11:14:36;;;;;;;46.05;4.50;;;4.90;95.80;;;;;;5156850;27;20115;-82
2022/01/05 11:17:06;;;;;;;26.40;4.00;;;5.00;95.70;;;;;;5159309;27;20043;-82
2022/01/05 11:19:37;;;;;;;35.63;4.00;;;5.00;95.80;;;;;;5161982;27;20050;-83
2022/01/05 11:22:19;;;;;;;33.75;4.72;;;5.00;95.60;;;;;;5163890;27;20100;-81
2022/01/05 11:24:53;;;;;;;52.67;4.82;;;5.10;95.60;;;;;;5161592;27;20027;-83
2022/01/05 11:27:24;;;;;;;42.65;4.53;;;5.10;95.50;;;;;;5159259;27;20515;-81
2022/01/05 11:29:56;;;;;;;38.55;4.20;;;5.10;95.10;;;;;;5162816;27;20097;-82
2022/01/05 11:32:27;;;;;;;29.27;3.40;;;5.10;95.10;;;;;;5163355;27;20039;-82
2022/01/05 11:34:58;;;;;;;36.13;3.63;;;5.10;94.90;;;;;;5168776;27;20032;-81
2022/01/05 11:37:28;;;;;;;39.15;3.83;;;5.10;94.90;;;;;;5168692;27;20027;-82
2022/01/05 11:39:57;;;;;;;28.33;4.20;;;5.10;95.00;;;;;;5167076;27;20051;-83
2022/01/05 11:42:40;;;;;;;34.13;3.78;;;5.10;95.10;;;;;;5165375;27;20108;-83
2022/01/05 11:45:08;;;;;;;30.07;4.00;;;5.20;95.30;;;;;;5166870;27;20383;-82
2022/01/05 11:47:38;;;;;;;40.80;3.92;;;5.20;95.30;;;;;;5165485;27;20051;-82
2022/01/05 11:50:14;;;;;;;36.33;4.75;;;5.20;95.30;;;;;;5165278;27;21979;-83
2022/01/05 11:53:12;;;;;;;26.35;3.20;;;5.20;94.90;;;;;;5165683;27;20051;-82
2022/01/05 11:56:04;;;;;;;23.55;3.88;;;5.20;94.80;;;;;;5167399;27;20024;-82
2022/01/05 11:59:17;;;;;;;32.95;3.28;;;5.20;94.70;;;;;;5159963;27;20056;-83
2022/01/05 12:02:00;;;;;;;29.52;4.07;;;5.20;94.70;;;;;;5140046;27;20052;-82
2022/01/05 12:04:30;;;;;;;23.98;3.38;;;5.40;95.20;;;;;;5144755;27;20089;-82
2022/01/05 12:07:00;;;;;;;29.13;3.40;;;5.40;94.90;;;;;;5140639;27;20089;-82
2022/01/05 12:09:31;;;;;;;27.30;3.47;;;5.40;94.70;;;;;;5144250;27;20042;-82
2022/01/05 12:12:19;;;;;;;28.90;3.63;;;5.40;94.40;;;;;;5145482;27;20032;-83
2022/01/05 12:14:46;;;;;;;38.25;3.30;;;5.50;94.40;;;;;;5145501;27;20043;-82
2022/01/05 12:17:16;;;;;;;36.85;3.80;;;5.40;94.40;;;;;;5146322;27;20062;-81
2022/01/05 12:19:46;;;;;;;26.17;2.90;;;5.40;94.70;;;;;;5150658;27;20052;-82
2022/01/05 12:22:23;;;;;;;34.00;4.20;;;5.30;94.50;;;;;;5144620;27;20447;-81
2022/01/05 12:24:53;;;;;;;39.20;4.43;;;5.40;94.70;;;;;;5143702;27;20143;-82
2022/01/05 12:27:26;;;;;;;36.58;3.60;;;5.50;94.90;;;;;;5145012;27;20080;-82
2022/01/05 12:30:19;;;;;;;27.97;3.60;;;5.50;94.70;;;;;;5145590;27;20052;-83
2022/01/05 12:33:17;;;;;;;36.00;4.25;;;5.50;94.70;;;;;;5147451;27;20032;-84
2022/01/05 12:35:55;;;;;;;30.90;3.75;;;5.50;94.50;;;;;;5146212;27;20044;-82
2022/01/05 12:38:47;;;;;;;32.35;3.47;;;5.50;94.50;;;;;;5144899;27;20075;-82
2022/01/05 12:41:28;;;;;;;30.02;3.40;;;5.50;94.70;;;;;;5143326;27;20031;-81
2022/01/05 12:43:57;;;;;;;29.85;3.15;;;5.50;94.70;;;;;;5140645;27;20040;-82
2022/01/05 12:46:40;;;;;;;40.00;3.78;;;5.50;94.70;;;;;;5142577;27;20032;-81
2022/01/05 12:49:22;;;;;;;33.22;3.50;;;5.50;94.70;;;;;;5139913;27;20099;-83
2022/01/05 12:51:52;;;;;;;29.63;3.55;;;5.50;94.60;;;;;;5142161;27;20040;-82
2022/01/05 12:54:28;;;;;;;27.60;3.25;;;5.50;94.70;;;;;;5139538;27;20043;-84
2022/01/05 12:57:05;;;;;;;41.70;4.57;;;5.40;94.70;;;;;;5142211;27;20040;-83
2022/01/05 12:59:41;;;;;;;19.83;3.13;;;5.40;94.70;;;;;;5155257;27;20055;-83
2022/01/05 13:02:23;;;;;;;31.13;4.10;;;5.40;94.70;;;;;;5164427;27;20837;-83
2022/01/05 13:04:55;;;;;;;42.50;4.28;;;5.40;94.90;;;;;;5164535;27;20048;-83
2022/01/05 13:07:24;;;;;;;26.15;3.42;;;5.40;94.90;;;;;;5162810;27;20036;-82